createdAt,value
2023-06-06T00:01:50.583Z,102430.81
2023-06-06T00:04:17.485Z,102414.09
2023-06-06T00:06:45.605Z,102427.59
2023-06-06T00:09:15.011Z,102427.66
2023-06-06T00:11:41.675Z,102409.69
2023-06-06T00:14:09.156Z,102429.31
2023-06-06T00:16:35.935Z,102428.44
2023-06-06T00:19:05.605Z,102429.16
2023-06-06T00:21:37.388Z,102416.53
2023-06-06T00:24:04.314Z,102419.13
2023-06-06T00:26:31.075Z,102424.25
2023-06-06T00:28:57.741Z,102423.28
2023-06-06T00:31:26.593Z,102423.03
2023-06-06T00:33:53.270Z,102432.41
2023-06-06T00:36:19.978Z,102408.25
2023-06-06T00:38:48.422Z,102403.63
2023-06-06T00:41:17.506Z,102423.00
2023-06-06T00:43:46.343Z,102422.84
2023-06-06T00:46:14.764Z,102412.47
2023-06-06T00:48:41.612Z,102426.47
2023-06-06T00:51:10.666Z,102403.72
2023-06-06T00:53:38.237Z,102423.94
2023-06-06T00:56:09.078Z,102424.59
2023-06-06T00:58:37.919Z,102394.59
2023-06-06T01:01:09.089Z,102425.09
2023-06-06T01:03:42.119Z,102428.34
2023-06-06T01:06:10.054Z,102406.09
2023-06-06T01:08:37.430Z,102419.97
2023-06-06T01:11:14.379Z,102423.22
2023-06-06T01:13:57.829Z,102421.34
2023-06-06T01:16:28.256Z,102417.69
2023-06-06T01:18:57.419Z,102411.41
2023-06-06T01:21:37.060Z,102420.94
2023-06-06T01:24:04.091Z,102397.31
2023-06-06T01:26:30.833Z,102420.59
2023-06-06T01:28:59.811Z,102414.31
2023-06-06T01:31:31.367Z,102408.03
2023-06-06T01:34:07.967Z,102417.41
2023-06-06T01:36:54.418Z,102421.50
2023-06-06T01:39:23.404Z,102415.31
2023-06-06T01:41:55.065Z,102416.84
2023-06-06T01:44:23.918Z,102408.94
2023-06-06T01:46:51.111Z,102417.47
2023-06-06T01:49:18.756Z,102412.13
2023-06-06T01:51:50.627Z,102387.81
2023-06-06T01:54:17.299Z,102385.84
2023-06-06T01:56:44.042Z,102409.91
2023-06-06T01:59:10.725Z,102405.47
2023-06-06T02:01:39.973Z,102400.91
2023-06-06T02:04:06.648Z,102401.75
2023-06-06T02:06:34.125Z,102417.28
2023-06-06T02:09:00.881Z,102407.34
2023-06-06T02:11:28.216Z,102408.13
2023-06-06T02:13:54.868Z,102407.91
2023-06-06T02:16:22.688Z,102403.41
2023-06-06T02:18:49.671Z,102398.13
2023-06-06T02:21:16.495Z,102377.47
2023-06-06T02:23:43.543Z,102396.97
2023-06-06T02:26:13.149Z,102395.16
2023-06-06T02:28:42.816Z,102404.69
2023-06-06T02:31:13.009Z,102396.78
2023-06-06T02:33:40.042Z,102376.00
2023-06-06T02:36:07.602Z,102397.44
2023-06-06T02:38:34.272Z,102399.06
2023-06-06T02:41:03.127Z,102373.00
2023-06-06T02:43:29.742Z,102394.31
2023-06-06T02:45:56.558Z,102395.19
2023-06-06T02:48:24.385Z,102402.38
2023-06-06T02:50:51.153Z,102382.81
2023-06-06T02:53:19.808Z,102384.34
2023-06-06T02:55:46.619Z,102395.09
2023-06-06T02:58:31.904Z,102368.41
2023-06-06T03:01:04.836Z,102385.34
2023-06-06T03:03:32.158Z,102389.66
2023-06-06T03:06:01.914Z,102385.25
2023-06-06T03:08:31.053Z,102381.53
2023-06-06T03:10:57.790Z,102390.25
2023-06-06T03:13:24.794Z,102390.06
2023-06-06T03:15:52.015Z,102389.88
2023-06-06T03:18:21.395Z,102373.94
2023-06-06T03:20:52.462Z,102372.94
2023-06-06T03:23:20.908Z,102389.63
2023-06-06T03:25:52.788Z,102379.78
2023-06-06T03:28:20.392Z,102388.56
2023-06-06T03:30:47.280Z,102376.81
2023-06-06T03:33:14.404Z,102381.91
2023-06-06T03:35:41.535Z,102379.41
2023-06-06T03:38:08.220Z,102383.63
2023-06-06T03:40:35.428Z,102377.63
2023-06-06T03:43:02.167Z,102378.50
2023-06-06T03:45:28.886Z,102375.81
2023-06-06T03:47:55.922Z,102379.25
2023-06-06T03:50:28.075Z,102382.84
2023-06-06T03:52:55.159Z,102366.50
2023-06-06T03:55:21.802Z,102373.84
2023-06-06T03:57:48.453Z,102383.53
2023-06-06T04:00:17.806Z,102386.22
2023-06-06T04:02:48.197Z,102382.84
2023-06-06T04:05:15.873Z,102372.22
2023-06-06T04:07:44.804Z,102377.44
2023-06-06T04:10:13.839Z,102376.72
2023-06-06T04:12:43.005Z,102354.03
2023-06-06T04:15:11.685Z,102385.53
2023-06-06T04:17:38.467Z,102371.50
2023-06-06T04:20:06.379Z,102371.78
2023-06-06T04:22:33.088Z,102377.88
2023-06-06T04:24:59.722Z,102360.38
2023-06-06T04:27:29.473Z,102374.56
2023-06-06T04:30:02.282Z,102374.72
2023-06-06T04:32:31.196Z,102375.56
2023-06-06T04:34:59.019Z,102370.59
2023-06-06T04:37:30.206Z,102369.59
2023-06-06T04:39:58.345Z,102357.34
2023-06-06T04:42:27.410Z,102381.44
2023-06-06T04:44:54.300Z,102376.31
2023-06-06T04:47:23.416Z,102380.03
2023-06-06T04:49:50.201Z,102382.72
2023-06-06T04:52:19.331Z,102389.00
2023-06-06T04:54:47.117Z,102385.75
2023-06-06T04:57:16.692Z,102385.13
2023-06-06T04:59:52.523Z,102388.78
2023-06-06T05:02:23.853Z,102381.44
2023-06-06T05:04:57.127Z,102384.19
2023-06-06T05:07:25.179Z,102377.19
2023-06-06T05:09:57.693Z,102387.22
2023-06-06T05:12:25.694Z,102382.19
2023-06-06T05:14:54.701Z,102380.53
2023-06-06T05:17:27.653Z,102373.00
2023-06-06T05:19:55.489Z,102365.97
2023-06-06T05:22:22.192Z,102387.69
2023-06-06T05:24:48.931Z,102393.13
2023-06-06T05:27:15.873Z,102394.47
2023-06-06T05:29:45.557Z,102389.56
2023-06-06T05:32:14.609Z,102368.63
2023-06-06T05:34:41.581Z,102362.75
2023-06-06T05:37:08.451Z,102381.25
2023-06-06T05:39:37.391Z,102389.66
2023-06-06T05:42:04.365Z,102372.66
2023-06-06T05:44:31.156Z,102379.25
2023-06-06T05:46:57.878Z,102380.66
2023-06-06T05:49:25.311Z,102375.00
2023-06-06T05:51:56.914Z,102362.91
2023-06-06T05:54:28.525Z,102392.66
2023-06-06T05:56:59.336Z,102379.28
2023-06-06T05:59:27.501Z,102357.09
2023-06-06T06:01:54.467Z,102380.38
2023-06-06T06:04:24.882Z,102352.66
2023-06-06T06:06:54.458Z,102374.66
2023-06-06T06:09:23.851Z,102374.13
2023-06-06T06:11:51.171Z,102374.06
2023-06-06T06:14:18.072Z,102362.69
2023-06-06T06:16:47.544Z,102376.13
2023-06-06T06:19:14.287Z,102369.06
2023-06-06T06:21:43.321Z,102370.91
2023-06-06T06:24:10.017Z,102368.34
2023-06-06T06:26:36.896Z,102369.06
2023-06-06T06:29:03.737Z,102373.06
2023-06-06T06:31:32.630Z,102379.56
2023-06-06T06:34:04.313Z,102356.84
2023-06-06T06:36:31.013Z,102357.25
2023-06-06T06:38:57.708Z,102366.44
2023-06-06T06:41:25.141Z,102352.56
2023-06-06T06:43:54.068Z,102363.53
2023-06-06T06:46:21.093Z,102373.56
2023-06-06T06:48:52.051Z,102377.41
2023-06-06T06:51:20.996Z,102371.44
2023-06-06T06:53:47.726Z,102368.03
2023-06-06T06:56:20.171Z,102365.47
2023-06-06T06:58:47.333Z,102334.47
2023-06-06T07:01:15.698Z,102377.06
2023-06-06T07:03:45.602Z,102377.94
2023-06-06T07:06:13.309Z,102382.38
2023-06-06T07:08:42.798Z,102370.84
2023-06-06T07:11:09.725Z,102384.13
2023-06-06T07:13:36.655Z,102384.06
2023-06-06T07:16:04.262Z,102376.84
2023-06-06T07:18:31.016Z,102359.00
2023-06-06T07:20:57.803Z,102340.34
2023-06-06T07:23:28.912Z,102365.09
2023-06-06T07:25:55.575Z,102366.81
2023-06-06T07:28:26.896Z,102365.81
2023-06-06T07:30:53.603Z,102353.38
2023-06-06T07:33:25.122Z,102362.94
2023-06-06T07:35:51.900Z,102368.19
2023-06-06T07:38:18.630Z,102371.66
2023-06-06T07:40:45.422Z,102365.19
2023-06-06T07:43:14.299Z,102361.50
2023-06-06T07:45:40.980Z,102357.16
2023-06-06T07:48:10.096Z,102353.81
2023-06-06T07:50:38.894Z,102360.94
2023-06-06T07:53:06.649Z,102353.63
2023-06-06T07:55:33.725Z,102350.78
2023-06-06T07:58:02.911Z,102341.78
2023-06-06T08:00:29.786Z,102352.34
2023-06-06T08:02:56.508Z,102355.16
2023-06-06T08:05:23.776Z,102361.41
2023-06-06T08:07:50.480Z,102370.44
2023-06-06T08:10:17.226Z,102358.13
2023-06-06T08:12:46.476Z,102362.59
2023-06-06T08:15:13.446Z,102351.09
2023-06-06T08:17:40.450Z,102356.34
2023-06-06T08:20:10.312Z,102327.97
2023-06-06T08:22:48.921Z,102359.91
2023-06-06T08:25:15.892Z,102365.31
2023-06-06T08:27:42.621Z,102362.66
2023-06-06T08:30:10.045Z,102353.91
2023-06-06T08:32:40.095Z,102342.44
2023-06-06T08:35:07.204Z,102361.66
2023-06-06T08:37:36.780Z,102363.84
2023-06-06T08:40:07.257Z,102351.97
2023-06-06T08:42:40.693Z,102353.44
2023-06-06T08:45:08.937Z,102354.25
2023-06-06T08:47:37.700Z,102354.34
2023-06-06T08:50:08.625Z,102343.38
2023-06-06T08:52:36.322Z,102334.22
2023-06-06T08:55:06.565Z,102337.50
2023-06-06T08:57:34.925Z,102361.22
2023-06-06T09:00:12.235Z,102361.09
2023-06-06T09:02:42.872Z,102347.50
2023-06-06T09:05:12.979Z,102352.84
2023-06-06T09:07:40.133Z,102347.81
2023-06-06T09:10:08.095Z,102348.81
2023-06-06T09:12:56.105Z,102343.50
2023-06-06T09:15:22.931Z,102325.75
2023-06-06T09:17:53.949Z,102335.13
2023-06-06T09:20:23.070Z,102336.69
2023-06-06T09:22:50.763Z,102349.72
2023-06-06T09:25:22.255Z,102348.75
2023-06-06T09:27:54.214Z,102345.25
2023-06-06T09:30:28.832Z,102314.19
2023-06-06T09:33:01.579Z,102337.28
2023-06-06T09:35:35.672Z,102318.25
2023-06-06T09:38:10.212Z,102347.84
2023-06-06T09:40:52.663Z,102316.34
2023-06-06T09:43:31.907Z,102330.06
2023-06-06T09:46:06.910Z,102328.31
2023-06-06T09:48:33.821Z,102311.09
2023-06-06T09:51:00.702Z,102331.19
2023-06-06T09:53:29.002Z,102325.94
2023-06-06T09:56:00.237Z,102336.44
2023-06-06T09:58:31.020Z,102334.84
2023-06-06T10:01:01.068Z,102328.75
2023-06-06T10:03:29.109Z,102327.88
2023-06-06T10:05:58.333Z,102327.19
2023-06-06T10:08:33.331Z,102319.25
2023-06-06T10:11:00.208Z,102330.03
2023-06-06T10:13:28.731Z,102323.03
2023-06-06T10:15:59.899Z,102316.00
2023-06-06T10:18:27.837Z,102303.88
2023-06-06T10:20:56.234Z,102308.41
2023-06-06T10:23:25.343Z,102304.97
2023-06-06T10:25:53.848Z,102320.13
2023-06-06T10:28:29.476Z,102314.84
2023-06-06T10:31:17.842Z,102320.28
2023-06-06T10:33:54.592Z,102318.53
2023-06-06T10:36:21.466Z,102311.47
2023-06-06T10:39:18.111Z,102325.63
2023-06-06T10:41:54.727Z,102315.81
2023-06-06T10:44:42.947Z,102325.56
2023-06-06T10:47:22.012Z,102311.38
2023-06-06T10:50:18.789Z,102303.44
2023-06-06T10:52:55.393Z,102302.53
2023-06-06T10:55:24.435Z,102311.41
2023-06-06T10:57:57.082Z,102301.63
2023-06-06T11:00:25.892Z,102306.03
2023-06-06T11:02:59.057Z,102304.31
2023-06-06T11:05:26.510Z,102303.44
2023-06-06T11:07:58.967Z,102304.31
2023-06-06T11:10:26.027Z,102283.03
2023-06-06T11:12:57.191Z,102293.69
2023-06-06T11:15:33.505Z,102300.75
2023-06-06T11:18:05.053Z,102310.44
2023-06-06T11:20:41.819Z,102295.34
2023-06-06T11:23:12.223Z,102287.31
2023-06-06T11:25:39.755Z,102293.38
2023-06-06T11:28:07.199Z,102294.25
2023-06-06T11:30:34.999Z,102290.72
2023-06-06T11:33:02.907Z,102293.31
2023-06-06T11:35:33.069Z,102284.50
2023-06-06T11:38:00.568Z,102271.09
2023-06-06T11:40:27.619Z,102268.47
2023-06-06T11:42:54.663Z,102288.81
2023-06-06T11:45:21.633Z,102277.25
2023-06-06T11:47:48.443Z,102271.06
2023-06-06T11:50:28.024Z,102265.81
2023-06-06T11:52:57.852Z,102267.56
2023-06-06T11:55:37.334Z,102270.13
2023-06-06T11:58:05.680Z,102264.75
2023-06-06T12:00:33.216Z,102270.00
2023-06-06T12:03:01.179Z,102245.09
2023-06-06T12:05:31.799Z,102272.50
2023-06-06T12:08:01.623Z,102262.72
2023-06-06T12:10:33.376Z,102257.44
2023-06-06T12:13:00.793Z,102272.50
2023-06-06T12:15:50.337Z,102269.78
2023-06-06T12:18:18.016Z,102265.25
2023-06-06T12:20:45.234Z,102265.22
2023-06-06T12:23:15.232Z,102263.41
2023-06-06T12:25:41.995Z,102253.59
2023-06-06T12:28:12.061Z,102228.69
2023-06-06T12:30:45.569Z,102254.31
2023-06-06T12:33:12.556Z,102222.44
2023-06-06T12:35:41.440Z,102243.75
2023-06-06T12:38:09.527Z,102255.13
2023-06-06T12:40:38.630Z,102236.47
2023-06-06T12:43:06.286Z,102244.34
2023-06-06T12:45:37.091Z,102245.22
2023-06-06T12:48:04.172Z,102251.38
2023-06-06T12:50:31.233Z,102242.41
2023-06-06T12:52:58.129Z,102245.84
2023-06-06T12:55:24.842Z,102194.38
2023-06-06T12:57:54.265Z,102250.19
2023-06-06T13:00:21.580Z,102244.84
2023-06-06T13:02:50.802Z,102234.22
2023-06-06T13:05:17.875Z,102242.84
2023-06-06T13:07:47.736Z,102245.34
2023-06-06T13:10:15.238Z,102227.56
2023-06-06T13:12:42.605Z,102236.31
2023-06-06T13:15:10.970Z,102239.66
2023-06-06T13:17:38.010Z,102216.56
2023-06-06T13:20:07.695Z,102243.06
2023-06-06T13:22:36.238Z,102235.13
2023-06-06T13:25:04.981Z,102226.22
2023-06-06T13:27:34.016Z,102238.66
2023-06-06T13:30:03.235Z,102228.06
2023-06-06T13:32:30.166Z,102222.63
2023-06-06T13:34:56.976Z,102225.34
2023-06-06T13:37:23.705Z,102224.44
2023-06-06T13:39:52.580Z,102224.44
2023-06-06T13:42:19.280Z,102224.44
2023-06-06T13:44:46.026Z,102231.50
2023-06-06T13:47:15.087Z,102227.13
2023-06-06T13:49:41.842Z,102228.94
2023-06-06T13:52:11.541Z,102232.50
2023-06-06T13:54:38.726Z,102212.00
2023-06-06T13:57:05.594Z,102238.56
2023-06-06T13:59:34.735Z,102241.25
2023-06-06T14:02:03.698Z,102232.41
2023-06-06T14:04:31.263Z,102221.63
2023-06-06T14:07:03.435Z,102239.44
2023-06-06T14:09:32.164Z,102225.19
2023-06-06T14:11:59.862Z,102215.63
2023-06-06T14:14:29.532Z,102227.09
2023-06-06T14:16:56.618Z,102213.03
2023-06-06T14:19:36.284Z,102208.53
2023-06-06T14:22:27.551Z,102227.09
2023-06-06T14:24:57.181Z,102214.72
2023-06-06T14:27:27.790Z,102220.91
2023-06-06T14:29:57.732Z,102212.13
2023-06-06T14:32:30.549Z,102219.22
2023-06-06T14:34:59.921Z,102188.19
2023-06-06T14:37:27.192Z,102206.81
2023-06-06T14:39:53.937Z,102228.91
2023-06-06T14:42:20.977Z,102214.69
2023-06-06T14:44:49.944Z,102225.28
2023-06-06T14:47:16.869Z,102219.16
2023-06-06T14:49:44.625Z,102222.69
2023-06-06T14:52:12.281Z,102209.53
2023-06-06T14:54:44.101Z,102214.75
2023-06-06T14:57:12.154Z,102211.09
2023-06-06T14:59:42.495Z,102209.38
2023-06-06T15:02:12.289Z,102214.63
2023-06-06T15:04:39.498Z,102212.84
2023-06-06T15:07:11.251Z,102209.22
2023-06-06T15:09:41.117Z,102202.94
2023-06-06T15:12:13.509Z,102195.78
2023-06-06T15:14:41.663Z,102205.47
2023-06-06T15:17:09.477Z,102198.34
2023-06-06T15:19:36.296Z,102180.63
2023-06-06T15:22:07.047Z,102202.81
2023-06-06T15:24:39.293Z,102207.22
2023-06-06T15:27:09.333Z,102203.72
2023-06-06T15:29:43.039Z,102199.28
2023-06-06T15:32:11.724Z,102190.47
2023-06-06T15:34:39.172Z,102177.25
2023-06-06T15:37:10.015Z,102176.44
2023-06-06T15:39:36.962Z,102182.63
2023-06-06T15:42:07.191Z,102191.56
2023-06-06T15:44:36.258Z,102178.41
2023-06-06T15:47:03.146Z,102187.19
2023-06-06T15:49:34.711Z,102186.25
2023-06-06T15:52:04.090Z,102184.47
2023-06-06T15:54:31.053Z,102174.75
2023-06-06T15:56:57.779Z,102174.00
2023-06-06T15:59:25.060Z,102168.75
2023-06-06T16:01:53.992Z,102176.66
2023-06-06T16:04:24.056Z,102169.59
2023-06-06T16:06:51.164Z,102174.84
2023-06-06T16:09:20.304Z,102165.06
2023-06-06T16:11:47.066Z,102148.22
2023-06-06T16:14:13.791Z,102159.63
2023-06-06T16:16:40.664Z,102168.53
2023-06-06T16:19:10.578Z,102180.03
2023-06-06T16:21:39.670Z,102177.41
2023-06-06T16:24:06.674Z,102169.47
2023-06-06T16:26:40.409Z,102165.81
2023-06-06T16:29:09.620Z,102168.44
2023-06-06T16:31:38.793Z,102177.28
2023-06-06T16:34:05.551Z,102167.66
2023-06-06T16:36:33.081Z,102121.41
2023-06-06T16:38:59.862Z,102175.50
2023-06-06T16:41:27.000Z,102171.13
2023-06-06T16:43:53.863Z,102171.16
2023-06-06T16:46:20.579Z,102171.13
2023-06-06T16:48:47.354Z,102169.47
2023-06-06T16:51:15.445Z,102163.31
2023-06-06T16:53:44.755Z,102172.91
2023-06-06T16:56:13.666Z,102159.47
2023-06-06T16:58:40.355Z,102167.50
2023-06-06T17:01:09.369Z,102163.94
2023-06-06T17:03:36.289Z,102178.00
2023-06-06T17:06:04.960Z,102164.78
2023-06-06T17:08:31.609Z,102162.94
2023-06-06T17:10:58.281Z,102148.69
2023-06-06T17:13:24.924Z,102161.06
2023-06-06T17:15:53.865Z,102166.19
2023-06-06T17:18:20.624Z,102164.41
2023-06-06T17:20:47.350Z,102169.59
2023-06-06T17:23:17.581Z,102168.66
2023-06-06T17:25:51.608Z,102166.97
2023-06-06T17:28:19.448Z,102165.25
2023-06-06T17:30:53.117Z,102167.06
2023-06-06T17:33:20.186Z,102152.06
2023-06-06T17:35:49.461Z,102167.06
2023-06-06T17:38:20.744Z,102165.22
2023-06-06T17:40:47.587Z,102164.19
2023-06-06T17:43:15.401Z,102151.72
2023-06-06T17:45:42.590Z,102157.00
2023-06-06T17:48:09.922Z,102157.81
2023-06-06T17:50:36.742Z,102140.03
2023-06-06T17:53:04.735Z,102167.50
2023-06-06T17:55:33.689Z,102161.28
2023-06-06T17:58:00.348Z,102157.59
2023-06-06T18:00:29.695Z,102161.03
2023-06-06T18:02:59.834Z,102175.19
2023-06-06T18:05:34.039Z,102161.91
2023-06-06T18:08:06.393Z,102162.78
2023-06-06T18:10:34.084Z,102169.84
2023-06-06T18:13:01.882Z,102167.97
2023-06-06T18:15:30.886Z,102160.78
2023-06-06T18:18:00.069Z,102135.03
2023-06-06T18:20:26.948Z,102162.38
2023-06-06T18:22:55.856Z,102135.56
2023-06-06T18:25:23.018Z,102141.78
2023-06-06T18:27:50.637Z,102170.06
2023-06-06T18:30:17.656Z,102161.22
2023-06-06T18:32:44.344Z,102144.19
2023-06-06T18:35:11.163Z,102150.34
2023-06-06T18:37:38.263Z,102172.50
2023-06-06T18:40:08.077Z,102161.78
2023-06-06T18:42:36.575Z,102172.13
2023-06-06T18:45:05.331Z,102178.22
2023-06-06T18:47:33.412Z,102179.00
2023-06-06T18:50:05.770Z,102185.00
2023-06-06T18:52:32.789Z,102182.25
2023-06-06T18:54:59.477Z,102172.09
2023-06-06T18:57:31.332Z,102188.78
2023-06-06T18:59:58.081Z,102177.97
2023-06-06T19:02:25.126Z,102184.19
2023-06-06T19:04:53.831Z,102190.25
2023-06-06T19:07:21.017Z,102196.22
2023-06-06T19:09:47.756Z,102197.84
2023-06-06T19:12:14.491Z,102176.94
2023-06-06T19:14:41.250Z,102207.03
2023-06-06T19:17:08.542Z,102202.56
2023-06-06T19:19:40.060Z,102208.56
2023-06-06T19:22:09.681Z,102214.59
2023-06-06T19:24:36.936Z,102216.25
2023-06-06T19:27:03.801Z,102197.38
2023-06-06T19:29:30.513Z,102214.25
2023-06-06T19:31:58.241Z,102215.81
2023-06-06T19:34:26.144Z,102217.47
2023-06-06T19:36:57.655Z,102228.56
2023-06-06T19:39:24.936Z,102204.22
2023-06-06T19:41:51.635Z,102209.44
2023-06-06T19:44:19.751Z,102235.06
2023-06-06T19:46:48.697Z,102230.47
2023-06-06T19:49:15.723Z,102228.44
2023-06-06T19:51:42.732Z,102241.44
2023-06-06T19:54:11.643Z,102241.28
2023-06-06T19:56:38.633Z,102246.38
2023-06-06T19:59:06.088Z,102239.03
2023-06-06T20:01:32.908Z,102229.94
2023-06-06T20:04:02.149Z,102252.88
2023-06-06T20:06:31.603Z,102227.69
2023-06-06T20:08:58.406Z,102241.88
2023-06-06T20:11:25.134Z,102254.88
2023-06-06T20:13:52.751Z,102250.13
2023-06-06T20:16:19.558Z,102256.00
2023-06-06T20:18:46.280Z,102227.28
2023-06-06T20:21:13.036Z,102241.16
2023-06-06T20:23:42.245Z,102263.34
2023-06-06T20:26:09.330Z,102266.66
2023-06-06T20:28:38.725Z,102250.34
2023-06-06T20:31:08.320Z,102273.28
2023-06-06T20:33:37.684Z,102271.28
2023-06-06T20:36:05.803Z,102278.91
2023-06-06T20:38:35.345Z,102273.31
2023-06-06T20:41:02.259Z,102280.97
2023-06-06T20:43:28.933Z,102284.28
2023-06-06T20:45:56.337Z,102277.84
2023-06-06T20:48:27.825Z,102284.56
2023-06-06T20:50:54.568Z,102279.06
2023-06-06T20:53:21.513Z,102286.84
2023-06-06T20:55:49.042Z,102287.59
2023-06-06T20:58:19.885Z,102273.25
2023-06-06T21:00:47.427Z,102285.50
2023-06-06T21:03:15.776Z,102277.44
2023-06-06T21:05:42.590Z,102275.13
2023-06-06T21:08:09.269Z,102281.31
2023-06-06T21:10:35.944Z,102270.25
2023-06-06T21:13:03.266Z,102288.66
2023-06-06T21:15:29.973Z,102284.03
2023-06-06T21:17:57.776Z,102259.56
2023-06-06T21:20:24.648Z,102257.53
2023-06-06T21:22:51.365Z,102282.34
2023-06-06T21:25:20.235Z,102285.63
2023-06-06T21:27:47.024Z,102279.25
2023-06-06T21:30:13.856Z,102285.16
2023-06-06T21:32:40.682Z,102275.94
2023-06-06T21:35:07.902Z,102269.44
2023-06-06T21:37:34.671Z,102279.16
2023-06-06T21:40:04.920Z,102286.09
2023-06-06T21:42:32.035Z,102289.34
2023-06-06T21:45:01.141Z,102278.63
2023-06-06T21:47:30.879Z,102280.94
2023-06-06T21:50:07.847Z,102258.47
2023-06-06T21:52:35.539Z,102278.75
2023-06-06T21:55:02.812Z,102289.44
2023-06-06T21:57:32.065Z,102294.44
2023-06-06T21:59:59.986Z,102287.25
2023-06-06T22:02:26.920Z,102295.88
2023-06-06T22:04:53.727Z,102290.34
2023-06-06T22:07:22.852Z,102264.28
2023-06-06T22:09:50.273Z,102289.13
2023-06-06T22:12:19.481Z,102277.56
2023-06-06T22:14:47.624Z,102284.38
2023-06-06T22:17:16.583Z,102279.72
2023-06-06T22:19:44.039Z,102276.13
2023-06-06T22:22:10.709Z,102278.50
2023-06-06T22:24:37.611Z,102269.44
2023-06-06T22:27:07.854Z,102283.47
2023-06-06T22:29:34.902Z,102278.94
2023-06-06T22:32:01.651Z,102279.66
2023-06-06T22:34:28.548Z,102285.66
2023-06-06T22:36:58.220Z,102287.88
2023-06-06T22:39:25.068Z,102275.50
2023-06-06T22:41:52.014Z,102287.72
2023-06-06T22:44:21.362Z,102287.53
2023-06-06T22:46:52.852Z,102295.13
2023-06-06T22:49:19.608Z,102299.31
2023-06-06T22:51:46.346Z,102297.22
2023-06-06T22:54:17.891Z,102292.88
2023-06-06T22:56:46.950Z,102297.13
2023-06-06T22:59:13.598Z,102289.13
2023-06-06T23:01:40.379Z,102289.81
2023-06-06T23:04:09.439Z,102296.09
2023-06-06T23:06:37.958Z,102296.78
2023-06-06T23:09:05.606Z,102292.16
2023-06-06T23:11:34.484Z,102292.00
2023-06-06T23:14:01.284Z,102290.06
2023-06-06T23:16:28.839Z,102281.81
2023-06-06T23:18:55.990Z,102294.19
2023-06-06T23:21:29.051Z,102289.66
2023-06-06T23:23:58.445Z,102287.91
2023-06-06T23:26:26.731Z,102285.91
2023-06-06T23:28:55.756Z,102291.84
2023-06-06T23:31:22.537Z,102289.19
2023-06-06T23:33:49.270Z,102289.84
2023-06-06T23:36:18.228Z,102286.06
2023-06-06T23:38:44.952Z,102290.38
2023-06-06T23:41:14.188Z,102280.47
2023-06-06T23:43:40.906Z,102291.06
2023-06-06T23:46:09.999Z,102282.34
2023-06-06T23:48:36.681Z,102283.13
2023-06-06T23:51:03.470Z,102287.41
2023-06-06T23:53:30.220Z,102291.66
2023-06-06T23:56:00.032Z,102285.25
2023-06-06T23:58:29.678Z,102291.44
